createdAt,value
2018-05-02T00:02:03.384Z,12.18
2018-05-02T00:04:33.149Z,10.23
2018-05-02T00:07:02.126Z,10.97
2018-05-02T00:09:31.465Z,9.03
2018-05-02T00:12:02.363Z,9.70
2018-05-02T00:14:31.813Z,9.67
2018-05-02T00:17:01.085Z,10.37
2018-05-02T00:19:31.930Z,10.00
2018-05-02T00:22:01.520Z,9.57
2018-05-02T00:24:31.233Z,9.43
2018-05-02T00:27:02.161Z,10.13
2018-05-02T00:29:31.190Z,9.53
2018-05-02T00:32:03.249Z,10.00
2018-05-02T00:34:33.194Z,9.97
2018-05-02T00:37:03.942Z,9.83
2018-05-02T00:39:32.569Z,11.00
2018-05-02T00:42:01.901Z,10.37
2018-05-02T00:44:33.291Z,11.13
2018-05-02T00:47:03.950Z,11.27
2018-05-02T00:49:33.301Z,10.70
2018-05-02T00:52:04.179Z,11.53
2018-05-02T00:54:33.823Z,11.97
2018-05-02T00:57:04.497Z,11.77
2018-05-02T00:59:35.380Z,12.03
2018-05-02T01:02:06.331Z,12.23
2018-05-02T01:04:37.265Z,12.30
2018-05-02T01:07:09.398Z,10.43
2018-05-02T01:09:41.387Z,11.53
2018-05-02T01:12:12.339Z,10.63
2018-05-02T01:14:41.967Z,11.57
2018-05-02T01:17:12.848Z,10.33
2018-05-02T01:19:43.259Z,10.50
2018-05-02T01:22:12.169Z,9.43
2018-05-02T01:24:43.154Z,10.03
2018-05-02T01:27:14.435Z,10.17
2018-05-02T01:29:43.849Z,9.50
2018-05-02T01:32:14.516Z,10.40
2018-05-02T01:34:43.655Z,9.67
2018-05-02T01:37:13.188Z,9.70
2018-05-02T01:39:43.967Z,9.27
2018-05-02T01:42:13.622Z,9.63
2018-05-02T01:44:44.529Z,9.30
2018-05-02T01:47:14.941Z,12.55
2018-05-02T01:49:44.948Z,11.03
2018-05-02T01:52:15.948Z,11.57
2018-05-02T01:54:45.984Z,10.93
2018-05-02T01:57:16.815Z,10.80
2018-05-02T01:59:47.422Z,10.00
2018-05-02T02:02:16.658Z,10.30
2018-05-02T02:04:46.656Z,10.80
2018-05-02T02:07:17.493Z,10.07
2018-05-02T02:09:48.199Z,10.70
2018-05-02T02:12:18.082Z,10.97
2018-05-02T02:14:47.931Z,11.30
2018-05-02T02:17:19.352Z,11.87
2018-05-02T02:19:49.129Z,10.97
2018-05-02T02:22:19.859Z,12.33
2018-05-02T02:24:50.618Z,12.83
2018-05-02T02:27:20.358Z,12.20
2018-05-02T02:29:50.456Z,11.90
2018-05-02T02:32:19.482Z,13.17
2018-05-02T02:34:50.058Z,11.97
2018-05-02T02:37:19.112Z,12.00
2018-05-02T02:39:49.390Z,11.57
2018-05-02T02:42:22.758Z,13.43
2018-05-02T02:44:54.647Z,13.77
2018-05-02T02:47:24.142Z,13.77
2018-05-02T02:49:54.799Z,13.20
2018-05-02T02:52:26.745Z,13.27
2018-05-02T02:54:55.730Z,14.10
2018-05-02T02:57:25.188Z,14.13
2018-05-02T02:59:54.621Z,14.17
2018-05-02T03:02:24.634Z,13.77
2018-05-02T03:04:54.427Z,13.90
2018-05-02T03:07:25.307Z,13.07
2018-05-02T03:09:56.210Z,12.90
2018-05-02T03:12:26.304Z,11.97
2018-05-02T03:14:56.777Z,12.90
2018-05-02T03:17:27.701Z,12.13
2018-05-02T03:19:56.908Z,9.57
2018-05-02T03:22:26.464Z,13.87
2018-05-02T03:24:57.223Z,11.43
2018-05-02T03:27:26.794Z,12.07
2018-05-02T03:29:56.214Z,13.57
2018-05-02T03:32:25.639Z,14.10
2018-05-02T03:34:57.067Z,13.20
2018-05-02T03:37:27.837Z,13.63
2018-05-02T03:39:58.448Z,11.97
2018-05-02T03:42:27.736Z,13.57
2018-05-02T03:44:57.049Z,11.90
2018-05-02T03:47:27.010Z,13.73
2018-05-02T03:49:57.694Z,11.97
2018-05-02T03:52:28.874Z,12.00
2018-05-02T03:54:58.055Z,12.77
2018-05-02T03:57:27.952Z,12.37
2018-05-02T04:00:40.599Z,11.70
2018-05-02T04:03:47.223Z,11.93
2018-05-02T04:06:45.526Z,11.77
2018-05-02T04:09:14.846Z,11.83
2018-05-02T04:11:44.228Z,12.27
2018-05-02T04:14:15.064Z,9.60
2018-05-02T04:16:45.870Z,9.90
2018-05-02T04:19:16.825Z,9.90
2018-05-02T04:21:48.248Z,7.60
2018-05-02T04:24:17.370Z,8.50
2018-05-02T04:26:46.462Z,9.20
2018-05-02T04:29:17.267Z,9.43
2018-05-02T04:31:47.926Z,8.53
2018-05-02T04:34:18.633Z,8.93
2018-05-02T04:36:47.848Z,8.70
2018-05-02T04:39:18.561Z,8.80
2018-05-02T04:41:49.398Z,8.00
2018-05-02T04:44:18.463Z,7.60
2018-05-02T04:46:47.826Z,8.53
2018-05-02T04:49:18.358Z,8.80
2018-05-02T04:51:49.103Z,7.63
2018-05-02T04:54:19.708Z,8.23
2018-05-02T04:56:51.058Z,7.47
2018-05-02T04:59:20.237Z,7.27
2018-05-02T05:01:50.978Z,6.73
2018-05-02T05:04:21.911Z,6.60
2018-05-02T05:06:53.784Z,7.07
2018-05-02T05:09:24.511Z,7.13
2018-05-02T05:11:55.731Z,6.03
2018-05-02T05:14:25.600Z,6.70
2018-05-02T05:16:57.087Z,6.37
2018-05-02T05:19:25.937Z,6.33
2018-05-02T05:21:55.629Z,4.43
2018-05-02T05:24:25.022Z,5.90
2018-05-02T05:26:54.390Z,5.83
2018-05-02T05:29:23.503Z,6.10
2018-05-02T05:31:54.855Z,6.23
2018-05-02T05:34:24.833Z,6.80
2018-05-02T05:36:56.266Z,6.30
2018-05-02T05:39:26.962Z,6.40
2018-05-02T05:41:56.284Z,5.60
2018-05-02T05:44:27.220Z,6.12
2018-05-02T05:46:57.704Z,6.40
2018-05-02T05:49:28.341Z,6.43
2018-05-02T05:51:57.277Z,5.95
2018-05-02T05:54:28.066Z,6.05
2018-05-02T05:56:57.264Z,5.67
2018-05-02T05:59:28.215Z,5.97
2018-05-02T06:01:57.576Z,5.43
2018-05-02T06:04:27.934Z,6.18
2018-05-02T06:06:59.600Z,5.85
2018-05-02T06:09:30.434Z,5.80
2018-05-02T06:12:01.185Z,5.85
2018-05-02T06:14:32.434Z,6.30
2018-05-02T06:17:02.095Z,6.65
2018-05-02T06:19:32.586Z,6.30
2018-05-02T06:22:02.591Z,7.55
2018-05-02T06:24:32.978Z,5.60
2018-05-02T06:27:04.262Z,5.15
2018-05-02T06:29:33.858Z,5.93
2018-05-02T06:32:04.548Z,6.75
2018-05-02T06:34:33.894Z,5.40
2018-05-02T06:37:03.735Z,5.47
2018-05-02T06:39:32.782Z,5.45
2018-05-02T06:42:03.431Z,5.70
2018-05-02T06:44:34.291Z,5.90
2018-05-02T06:47:04.727Z,5.47
2018-05-02T06:49:33.853Z,5.60
2018-05-02T06:52:04.373Z,6.25
2018-05-02T06:54:33.642Z,5.72
2018-05-02T06:57:04.034Z,5.80
2018-05-02T06:59:34.004Z,6.60
2018-05-02T07:02:05.455Z,6.12
2018-05-02T07:04:34.633Z,6.53
2018-05-02T07:07:04.049Z,6.37
2018-05-02T07:09:33.695Z,5.97
2018-05-02T07:12:05.176Z,6.22
2018-05-02T07:14:36.644Z,7.47
2018-05-02T07:17:07.535Z,6.35
2018-05-02T07:19:39.106Z,6.07
2018-05-02T07:22:08.287Z,5.85
2018-05-02T07:24:38.227Z,6.75
2018-05-02T07:27:07.292Z,6.47
2018-05-02T07:29:37.985Z,6.80
2018-05-02T07:32:08.699Z,6.03
2018-05-02T07:34:39.572Z,5.65
2018-05-02T07:37:09.202Z,5.70
2018-05-02T07:39:38.402Z,5.82
2018-05-02T07:42:09.869Z,6.12
2018-05-02T07:44:40.629Z,5.85
2018-05-02T07:47:10.551Z,6.30
2018-05-02T07:49:42.735Z,5.55
2018-05-02T07:52:12.060Z,5.32
2018-05-02T07:54:41.458Z,5.25
2018-05-02T07:57:10.573Z,5.37
2018-05-02T07:59:40.481Z,5.30
2018-05-02T08:02:09.657Z,5.15
2018-05-02T08:04:40.318Z,4.72
2018-05-02T08:07:11.870Z,4.40
2018-05-02T08:09:41.204Z,3.87
2018-05-02T08:12:12.495Z,4.35
2018-05-02T08:14:42.420Z,3.83
2018-05-02T08:17:12.027Z,3.87
2018-05-02T08:19:41.195Z,3.47
2018-05-02T08:22:10.488Z,3.37
2018-05-02T08:24:39.193Z,4.20
2018-05-02T08:27:09.634Z,3.50
2018-05-02T08:29:39.573Z,3.53
2018-05-02T08:32:08.883Z,3.37
2018-05-02T08:34:38.009Z,4.10
2018-05-02T08:37:08.904Z,4.10
2018-05-02T08:39:39.241Z,3.42
2018-05-02T08:42:09.853Z,3.17
2018-05-02T08:44:39.268Z,3.20
2018-05-02T08:47:08.948Z,3.22
2018-05-02T08:49:39.800Z,2.97
2018-05-02T08:52:09.168Z,2.90
2018-05-02T08:54:38.820Z,2.70
2018-05-02T08:57:08.176Z,3.33
2018-05-02T08:59:38.985Z,3.20
2018-05-02T09:02:09.662Z,3.28
2018-05-02T09:04:39.325Z,3.05
2018-05-02T09:07:10.626Z,2.60
2018-05-02T09:09:41.591Z,2.80
2018-05-02T09:12:11.180Z,3.15
2018-05-02T09:14:43.955Z,3.00
2018-05-02T09:17:13.572Z,2.28
2018-05-02T09:19:44.971Z,2.30
2018-05-02T09:22:15.763Z,2.00
2018-05-02T09:24:46.774Z,1.92
2018-05-02T09:27:17.417Z,2.47
2018-05-02T09:29:47.118Z,2.28
2018-05-02T09:32:17.862Z,2.70
2018-05-02T09:34:48.551Z,3.15
2018-05-02T09:37:19.693Z,1.90
2018-05-02T09:39:50.979Z,2.30
2018-05-02T09:42:20.153Z,2.35
2018-05-02T09:44:51.336Z,2.37
2018-05-02T09:47:20.715Z,1.87
2018-05-02T09:49:51.402Z,2.28
2018-05-02T09:52:23.855Z,1.73
2018-05-02T09:54:53.261Z,2.30
2018-05-02T09:57:22.967Z,2.00
2018-05-02T09:59:55.118Z,2.22
2018-05-02T10:02:24.058Z,2.50
2018-05-02T10:04:53.232Z,2.33
2018-05-02T10:07:23.737Z,1.92
2018-05-02T10:09:53.385Z,2.10
2018-05-02T10:12:22.445Z,2.03
2018-05-02T10:14:51.280Z,2.20
2018-05-02T10:17:22.465Z,1.73
2018-05-02T10:19:53.181Z,2.30
2018-05-02T10:22:23.846Z,2.40
2018-05-02T10:24:53.232Z,1.98
2018-05-02T10:27:23.151Z,2.47
2018-05-02T10:29:53.692Z,2.10
2018-05-02T10:32:23.019Z,2.65
2018-05-02T10:34:52.167Z,2.30
2018-05-02T10:37:21.528Z,2.10
2018-05-02T10:39:52.967Z,2.22
2018-05-02T10:42:24.204Z,1.98
2018-05-02T10:44:53.602Z,2.20
2018-05-02T10:47:22.450Z,2.30
2018-05-02T10:49:53.386Z,2.30
2018-05-02T10:52:22.826Z,2.67
2018-05-02T10:54:51.957Z,2.87
2018-05-02T10:57:21.400Z,2.25
2018-05-02T10:59:50.509Z,2.85
2018-05-02T11:02:20.822Z,2.67
2018-05-02T11:04:50.703Z,2.45
2018-05-02T11:07:21.427Z,2.58
2018-05-02T11:09:51.078Z,2.83
2018-05-02T11:12:21.421Z,3.17
2018-05-02T11:14:51.135Z,2.53
2018-05-02T11:17:22.172Z,2.53
2018-05-02T11:19:53.581Z,2.12
2018-05-02T11:22:23.467Z,2.42
2018-05-02T11:24:54.960Z,2.17
2018-05-02T11:27:26.710Z,2.50
2018-05-02T11:29:57.568Z,2.53
2018-05-02T11:32:29.589Z,2.20
2018-05-02T11:34:58.896Z,2.60
2018-05-02T11:37:29.584Z,2.70
2018-05-02T11:39:58.848Z,2.60
2018-05-02T11:42:30.306Z,2.40
2018-05-02T11:45:00.787Z,2.42
2018-05-02T11:47:32.654Z,2.72
2018-05-02T11:50:02.076Z,2.40
2018-05-02T11:52:32.002Z,2.92
2018-05-02T11:55:01.657Z,2.55
2018-05-02T11:57:32.523Z,2.50
2018-05-02T12:00:02.115Z,2.70
2018-05-02T12:02:33.724Z,2.53
2018-05-02T12:05:02.497Z,2.40
2018-05-02T12:07:31.668Z,2.90
2018-05-02T12:10:03.152Z,2.75
2018-05-02T12:12:33.881Z,2.35
2018-05-02T12:15:04.833Z,2.70
2018-05-02T12:17:35.612Z,2.70
2018-05-02T12:20:06.711Z,3.05
2018-05-02T12:22:36.171Z,2.10
2018-05-02T12:25:07.155Z,3.05
2018-05-02T12:27:38.090Z,3.05
2018-05-02T12:30:09.636Z,3.10
2018-05-02T12:32:38.743Z,2.60
2018-05-02T12:35:08.104Z,2.35
2018-05-02T12:37:37.530Z,2.28
2018-05-02T12:40:08.060Z,2.20
2018-05-02T12:42:38.931Z,2.92
2018-05-02T12:45:08.348Z,2.40
2018-05-02T12:47:39.333Z,2.45
2018-05-02T12:50:10.668Z,2.42
2018-05-02T12:52:41.919Z,2.22
2018-05-02T12:55:12.639Z,2.70
2018-05-02T12:57:43.582Z,2.50
2018-05-02T13:00:12.915Z,2.60
2018-05-02T13:02:43.838Z,2.75
2018-05-02T13:05:14.485Z,2.53
2018-05-02T13:07:45.450Z,2.55
2018-05-02T13:10:15.563Z,2.33
2018-05-02T13:12:47.494Z,2.72
2018-05-02T13:15:18.416Z,2.35
2018-05-02T13:17:51.013Z,2.20
2018-05-02T13:20:21.064Z,2.08
2018-05-02T13:22:51.751Z,2.40
2018-05-02T13:25:21.883Z,2.87
2018-05-02T13:27:53.344Z,2.67
2018-05-02T13:30:23.224Z,2.60
2018-05-02T13:32:52.891Z,2.60
2018-05-02T13:35:22.240Z,2.45
2018-05-02T13:37:51.113Z,2.30
2018-05-02T13:40:21.798Z,2.60
2018-05-02T13:42:51.773Z,2.78
2018-05-02T13:45:23.172Z,2.30
2018-05-02T13:47:53.886Z,2.30
2018-05-02T13:50:23.544Z,2.37
2018-05-02T13:52:54.524Z,2.45
2018-05-02T13:55:23.848Z,2.30
2018-05-02T13:57:54.753Z,2.85
2018-05-02T14:00:24.052Z,2.70
2018-05-02T14:02:57.555Z,2.95
2018-05-02T14:05:28.584Z,2.50
2018-05-02T14:08:00.372Z,2.53
2018-05-02T14:10:30.216Z,2.60
2018-05-02T14:13:02.237Z,2.35
2018-05-02T14:15:33.307Z,2.17
2018-05-02T14:18:05.658Z,2.25
2018-05-02T14:20:38.582Z,2.53
2018-05-02T14:23:07.957Z,2.25
2018-05-02T14:25:37.477Z,2.30
2018-05-02T14:28:06.874Z,2.12
2018-05-02T14:30:39.851Z,2.45
2018-05-02T14:33:09.723Z,2.20
2018-05-02T14:35:38.831Z,2.20
2018-05-02T14:38:09.828Z,2.10
2018-05-02T14:40:39.685Z,2.08
2018-05-02T14:43:10.619Z,1.92
2018-05-02T14:45:40.412Z,2.45
2018-05-02T14:48:10.367Z,2.45
2018-05-02T14:50:40.168Z,2.55
2018-05-02T14:53:11.448Z,2.12
2018-05-02T14:55:40.830Z,2.33
2018-05-02T14:58:10.219Z,2.50
2018-05-02T15:00:42.571Z,2.60
2018-05-02T15:03:13.916Z,2.60
2018-05-02T15:05:44.876Z,2.50
2018-05-02T15:08:14.324Z,3.03
2018-05-02T15:10:43.167Z,2.50
2018-05-02T15:13:14.055Z,2.03
2018-05-02T15:15:45.395Z,2.10
2018-05-02T15:18:15.723Z,2.47
2018-05-02T15:20:45.110Z,2.17
2018-05-02T15:23:16.090Z,2.75
2018-05-02T15:25:47.667Z,2.10
2018-05-02T15:28:16.959Z,2.78
2018-05-02T15:30:47.944Z,2.60
2018-05-02T15:33:17.355Z,2.28
2018-05-02T15:35:47.223Z,2.10
2018-05-02T15:38:16.557Z,3.40
2018-05-02T15:40:45.343Z,2.20
2018-05-02T15:43:14.507Z,1.80
2018-05-02T15:45:45.811Z,2.17
2018-05-02T15:48:15.145Z,2.45
2018-05-02T15:50:44.489Z,2.42
2018-05-02T15:53:13.892Z,2.30
2018-05-02T15:55:45.421Z,2.12
2018-05-02T15:58:15.933Z,2.00
2018-05-02T16:00:45.159Z,2.40
2018-05-02T16:03:15.008Z,2.22
2018-05-02T16:05:44.130Z,2.28
2018-05-02T16:08:13.289Z,1.90
2018-05-02T16:10:43.588Z,2.37
2018-05-02T16:13:14.600Z,2.37
2018-05-02T16:15:43.972Z,1.90
2018-05-02T16:18:13.739Z,2.58
2018-05-02T16:20:44.643Z,2.50
2018-05-02T16:23:13.581Z,2.35
2018-05-02T16:25:42.929Z,2.40
2018-05-02T16:28:14.078Z,3.15
2018-05-02T16:30:43.480Z,2.53
2018-05-02T16:33:13.393Z,2.60
2018-05-02T16:35:42.530Z,2.55
2018-05-02T16:38:12.454Z,2.28
2018-05-02T16:40:42.828Z,2.20
2018-05-02T16:43:12.013Z,2.33
2018-05-02T16:45:41.964Z,3.03
2018-05-02T16:48:13.174Z,2.42
2018-05-02T16:50:42.542Z,2.47
2018-05-02T16:53:13.290Z,2.08
2018-05-02T16:55:43.975Z,2.65
2018-05-02T16:58:13.166Z,2.17
2018-05-02T17:00:42.206Z,2.53
2018-05-02T17:03:11.025Z,2.42
2018-05-02T17:05:41.687Z,2.90
2018-05-02T17:08:10.829Z,2.55
2018-05-02T17:10:41.212Z,2.40
2018-05-02T17:13:12.027Z,2.60
2018-05-02T17:15:42.005Z,2.47
2018-05-02T17:18:12.568Z,2.58
2018-05-02T17:20:43.594Z,3.03
2018-05-02T17:23:13.382Z,2.47
2018-05-02T17:25:44.359Z,3.03
2018-05-02T17:28:14.988Z,2.95
2018-05-02T17:30:44.197Z,3.03
2018-05-02T17:33:12.798Z,2.40
2018-05-02T17:35:43.691Z,2.60
2018-05-02T17:38:14.566Z,2.60
2018-05-02T17:40:43.946Z,2.40
2018-05-02T17:43:14.691Z,2.62
2018-05-02T17:45:44.059Z,2.67
2018-05-02T17:48:13.233Z,2.35
2018-05-02T17:50:43.091Z,2.67
2018-05-02T17:53:14.079Z,2.25
2018-05-02T17:55:43.858Z,2.80
2018-05-02T17:58:12.444Z,2.28
2018-05-02T18:00:43.371Z,2.05
2018-05-02T18:03:12.717Z,1.90
2018-05-02T18:05:43.309Z,1.98
2018-05-02T18:08:12.433Z,2.10
2018-05-02T18:10:43.319Z,1.80
2018-05-02T18:13:14.290Z,2.20
2018-05-02T18:15:43.934Z,2.33
2018-05-02T18:18:14.637Z,2.53
2018-05-02T18:20:45.544Z,2.50
2018-05-02T18:23:16.262Z,2.80
2018-05-02T18:25:45.091Z,2.30
2018-05-02T18:28:13.983Z,2.45
2018-05-02T18:30:45.512Z,2.30
2018-05-02T18:33:14.596Z,2.00
2018-05-02T18:35:43.713Z,2.03
2018-05-02T18:38:14.478Z,2.17
2018-05-02T18:40:45.168Z,2.03
2018-05-02T18:43:16.639Z,2.30
2018-05-02T18:45:46.022Z,2.10
2018-05-02T18:48:15.321Z,2.40
2018-05-02T18:50:46.526Z,2.40
2018-05-02T18:53:16.121Z,2.20
2018-05-02T18:55:47.511Z,2.10
2018-05-02T18:58:16.862Z,2.20
2018-05-02T19:00:47.906Z,2.17
2018-05-02T19:03:17.254Z,2.37
2018-05-02T19:05:46.357Z,2.72
2018-05-02T19:08:16.767Z,2.60
2018-05-02T19:10:47.716Z,2.25
2018-05-02T19:13:18.970Z,2.35
2018-05-02T19:15:48.356Z,2.55
2018-05-02T19:18:36.041Z,2.25
2018-05-02T19:21:07.448Z,2.50
2018-05-02T19:23:36.534Z,2.00
2018-05-02T19:26:30.835Z,2.37
2018-05-02T19:29:01.873Z,2.37
2018-05-02T19:31:49.895Z,2.03
2018-05-02T19:34:20.541Z,2.75
2018-05-02T19:36:51.168Z,2.65
2018-05-02T19:39:22.306Z,2.40
2018-05-02T19:42:08.933Z,2.72
2018-05-02T19:44:39.244Z,2.92
2018-05-02T19:47:10.295Z,3.00
2018-05-02T19:49:41.172Z,2.50
2018-05-02T19:52:47.550Z,2.80
2018-05-02T19:55:16.498Z,2.83
2018-05-02T19:57:45.800Z,2.87
2018-05-02T20:00:34.291Z,2.78
2018-05-02T20:03:04.275Z,2.65
2018-05-02T20:05:33.676Z,2.83
2018-05-02T20:08:21.766Z,2.80
2018-05-02T20:11:08.772Z,2.87
2018-05-02T20:13:56.076Z,3.33
2018-05-02T20:16:27.065Z,3.42
2018-05-02T20:18:56.374Z,3.25
2018-05-02T20:21:25.935Z,3.50
2018-05-02T20:23:56.823Z,3.40
2018-05-02T20:26:27.677Z,3.17
2018-05-02T20:28:57.413Z,3.50
2018-05-02T20:31:28.429Z,3.40
2018-05-02T20:33:59.796Z,3.47
2018-05-02T20:36:30.776Z,4.45
2018-05-02T20:39:00.097Z,5.37
2018-05-02T20:41:29.294Z,5.47
2018-05-02T20:44:00.685Z,6.12
2018-05-02T20:46:31.400Z,6.13
2018-05-02T20:49:02.641Z,6.30
2018-05-02T20:51:32.658Z,7.33
2018-05-02T20:54:03.637Z,6.63
2018-05-02T20:56:33.406Z,7.10
2018-05-02T20:59:02.723Z,6.45
2018-05-02T21:01:33.777Z,7.07
2018-05-02T21:04:03.336Z,6.20
2018-05-02T21:06:33.218Z,6.70
2018-05-02T21:09:04.145Z,6.70
2018-05-02T21:11:34.173Z,5.87
2018-05-02T21:14:04.028Z,6.40
2018-05-02T21:16:33.398Z,5.60
2018-05-02T21:19:02.707Z,6.47
2018-05-02T21:21:32.100Z,6.30
2018-05-02T21:24:02.764Z,5.60
2018-05-02T21:26:33.646Z,6.20
2018-05-02T21:29:03.234Z,5.97
2018-05-02T21:31:34.769Z,5.47
2018-05-02T21:34:05.334Z,5.60
2018-05-02T21:36:35.279Z,6.60
2018-05-02T21:39:06.462Z,5.43
2018-05-02T21:41:37.151Z,5.90
2018-05-02T21:44:07.873Z,6.43
2018-05-02T21:46:38.697Z,6.40
2018-05-02T21:49:07.944Z,6.03
2018-05-02T21:51:38.635Z,6.83
2018-05-02T21:54:08.913Z,6.53
2018-05-02T21:56:38.813Z,6.40
2018-05-02T21:59:08.374Z,6.57
2018-05-02T22:01:38.779Z,6.57
2018-05-02T22:04:09.827Z,6.82
2018-05-02T22:06:39.131Z,7.53
2018-05-02T22:09:08.120Z,6.93
2018-05-02T22:11:37.407Z,7.20
2018-05-02T22:14:07.193Z,7.70
2018-05-02T22:16:38.482Z,7.40
2018-05-02T22:19:07.951Z,7.50
2018-05-02T22:21:38.190Z,7.43
2018-05-02T22:24:09.380Z,7.97
2018-05-02T22:26:40.478Z,8.32
2018-05-02T22:29:10.185Z,8.73
2018-05-02T22:31:40.140Z,8.67
2018-05-02T22:34:09.660Z,8.83
2018-05-02T22:36:40.424Z,9.43
2018-05-02T22:39:09.940Z,9.13
2018-05-02T22:41:41.347Z,9.80
2018-05-02T22:44:10.637Z,9.15
2018-05-02T22:46:40.078Z,10.48
2018-05-02T22:49:09.462Z,10.00
2018-05-02T22:51:40.610Z,10.77
2018-05-02T22:54:11.609Z,11.15
2018-05-02T22:56:41.073Z,12.03
2018-05-02T22:59:10.357Z,11.60
2018-05-02T23:01:41.718Z,11.37
2018-05-02T23:04:11.730Z,12.47
2018-05-02T23:06:41.127Z,11.87
2018-05-02T23:09:10.344Z,12.17
2018-05-02T23:11:39.897Z,13.27
2018-05-02T23:14:09.378Z,12.10
2018-05-02T23:16:38.781Z,12.27
2018-05-02T23:19:08.226Z,11.23
2018-05-02T23:21:37.159Z,10.70
2018-05-02T23:24:06.679Z,10.15
2018-05-02T23:26:37.353Z,9.87
2018-05-02T23:29:08.210Z,8.73
2018-05-02T23:31:39.312Z,9.77
2018-05-02T23:34:09.975Z,8.73
2018-05-02T23:36:40.891Z,7.63
2018-05-02T23:39:10.040Z,7.35
2018-05-02T23:41:39.303Z,6.60
2018-05-02T23:44:10.788Z,6.13
2018-05-02T23:46:39.983Z,6.13
2018-05-02T23:49:10.885Z,6.73
2018-05-02T23:51:41.892Z,5.17
2018-05-02T23:54:10.412Z,5.03
2018-05-02T23:56:39.639Z,4.37
2018-05-02T23:59:09.464Z,4.07
